SWA5563 KDAL-KOKC
Flight info
| Callsign | SWA5563 |
|---|---|
| Flight time | N/A |
| Altitude | 29000 |
| Route | ESNYE7 ZEMMA TSDEL3 |
| Aircraft | B738/M-SADE2E3GIJ4RWZ/LB1D1 |
Departure
| Time | N/A |
|---|---|
| Airport | Dallas Love Field (KDAL) |
Arrival
| Time | 2026-05-09 01:49 |
|---|---|
| Airport | OKC Will Rogers World Airport (KOKC) |
| Time | Latitude | Longitude | Altitude | Speed | Heading |
|---|---|---|---|---|---|
| 2026-05-09 01:27 | 34.52505 | -97.07980 | 18886 ft | 394 kts | 328° |
| 2026-05-09 01:27 | 34.54866 | -97.09497 | 18877 ft | 374 kts | 329° |
| 2026-05-09 01:27 | 34.57106 | -97.10930 | 18899 ft | 356 kts | 328° |
| 2026-05-09 01:27 | 34.59264 | -97.12312 | 18906 ft | 349 kts | 328° |
| 2026-05-09 01:28 | 34.61417 | -97.13696 | 18730 ft | 352 kts | 328° |
| 2026-05-09 01:28 | 34.63576 | -97.15082 | 18401 ft | 349 kts | 328° |
| 2026-05-09 01:28 | 34.65718 | -97.16459 | 17928 ft | 347 kts | 328° |
| 2026-05-09 01:28 | 34.67843 | -97.17823 | 17432 ft | 344 kts | 328° |
| 2026-05-09 01:29 | 34.69948 | -97.19175 | 16969 ft | 340 kts | 328° |
| 2026-05-09 01:29 | 34.72024 | -97.20509 | 16538 ft | 336 kts | 328° |
| 2026-05-09 01:29 | 34.74082 | -97.21832 | 16084 ft | 333 kts | 328° |
| 2026-05-09 01:29 | 34.76119 | -97.23143 | 15620 ft | 330 kts | 328° |
| 2026-05-09 01:30 | 34.78145 | -97.24448 | 15168 ft | 328 kts | 328° |
| 2026-05-09 01:30 | 34.80110 | -97.25837 | 14701 ft | 325 kts | 325° |
| 2026-05-09 01:30 | 34.82021 | -97.27286 | 14241 ft | 323 kts | 324° |
| 2026-05-09 01:30 | 34.83939 | -97.28750 | 13950 ft | 316 kts | 324° |
| 2026-05-09 01:31 | 34.85773 | -97.30136 | 13774 ft | 306 kts | 324° |
| 2026-05-09 01:31 | 34.87555 | -97.31474 | 13628 ft | 295 kts | 324° |
| 2026-05-09 01:31 | 34.89274 | -97.32761 | 13488 ft | 285 kts | 324° |
| 2026-05-09 01:31 | 34.90953 | -97.34030 | 13171 ft | 282 kts | 324° |
| 2026-05-09 01:32 | 34.92606 | -97.35288 | 12825 ft | 279 kts | 324° |
| 2026-05-09 01:32 | 34.94240 | -97.36534 | 12485 ft | 277 kts | 324° |
| 2026-05-09 01:32 | 34.95873 | -97.37780 | 12143 ft | 275 kts | 324° |
| 2026-05-09 01:32 | 34.97493 | -97.39015 | 11803 ft | 273 kts | 324° |
| 2026-05-09 01:33 | 34.99098 | -97.40239 | 11475 ft | 272 kts | 324° |
| 2026-05-09 01:33 | 35.00695 | -97.41457 | 11149 ft | 270 kts | 325° |
| 2026-05-09 01:33 | 35.02288 | -97.42672 | 10826 ft | 269 kts | 325° |
| 2026-05-09 01:33 | 35.03872 | -97.43881 | 10501 ft | 268 kts | 325° |
| 2026-05-09 01:34 | 35.05453 | -97.45087 | 10173 ft | 267 kts | 325° |
| 2026-05-09 01:34 | 35.07019 | -97.46232 | 10048 ft | 259 kts | 332° |
| 2026-05-09 01:34 | 35.08750 | -97.46797 | 9918 ft | 257 kts | 349° |
| 2026-05-09 01:34 | 35.10541 | -97.46946 | 9637 ft | 258 kts | 353° |
| 2026-05-09 01:35 | 35.12316 | -97.47025 | 9386 ft | 255 kts | 353° |
| 2026-05-09 01:35 | 35.14080 | -97.47113 | 9096 ft | 253 kts | 353° |
| 2026-05-09 01:35 | 35.15840 | -97.47215 | 8813 ft | 252 kts | 353° |
| 2026-05-09 01:35 | 35.17613 | -97.47323 | 8521 ft | 251 kts | 353° |
| 2026-05-09 01:36 | 35.19352 | -97.47432 | 8237 ft | 250 kts | 353° |
| 2026-05-09 01:36 | 35.21072 | -97.47541 | 7956 ft | 250 kts | 353° |
| 2026-05-09 01:36 | 35.22808 | -97.47652 | 7669 ft | 249 kts | 353° |
| 2026-05-09 01:36 | 35.24560 | -97.47764 | 7432 ft | 247 kts | 353° |
| 2026-05-09 01:37 | 35.26246 | -97.47871 | 7320 ft | 239 kts | 354° |
| 2026-05-09 01:37 | 35.27888 | -97.47975 | 7202 ft | 233 kts | 354° |
| 2026-05-09 01:37 | 35.28948 | -97.48043 | 7130 ft | 228 kts | 354° |
| 2026-05-09 01:37 | 35.31063 | -97.48181 | 6823 ft | 227 kts | 354° |
| 2026-05-09 01:38 | 35.32636 | -97.48283 | 6584 ft | 226 kts | 354° |
| 2026-05-09 01:38 | 35.33675 | -97.48351 | 6440 ft | 226 kts | 354° |
| 2026-05-09 01:38 | 35.35243 | -97.48452 | 6256 ft | 223 kts | 354° |
| 2026-05-09 01:38 | 35.36769 | -97.48550 | 6139 ft | 217 kts | 354° |
| 2026-05-09 01:39 | 35.38252 | -97.48645 | 6031 ft | 210 kts | 354° |
| 2026-05-09 01:39 | 35.39712 | -97.48698 | 5890 ft | 212 kts | 357° |
| 2026-05-09 01:39 | 35.41212 | -97.48696 | 5765 ft | 219 kts | 358° |
| 2026-05-09 01:39 | 35.42761 | -97.48691 | 5610 ft | 226 kts | 358° |
| 2026-05-09 01:40 | 35.44341 | -97.48688 | 5451 ft | 227 kts | 358° |
| 2026-05-09 01:40 | 35.45913 | -97.48694 | 5285 ft | 224 kts | 356° |
| 2026-05-09 01:40 | 35.47458 | -97.48768 | 5125 ft | 220 kts | 356° |
| 2026-05-09 01:40 | 35.48983 | -97.48771 | 4993 ft | 219 kts | 358° |
| 2026-05-09 01:41 | 35.50514 | -97.48763 | 4806 ft | 222 kts | 358° |
| 2026-05-09 01:41 | 35.52060 | -97.48759 | 4617 ft | 222 kts | 358° |
| 2026-05-09 01:41 | 35.53595 | -97.48759 | 4461 ft | 218 kts | 358° |
| 2026-05-09 01:41 | 35.55111 | -97.48762 | 4257 ft | 218 kts | 358° |
| 2026-05-09 01:42 | 35.56650 | -97.48766 | 4091 ft | 218 kts | 358° |
| 2026-05-09 01:42 | 35.58205 | -97.48776 | 4049 ft | 226 kts | 358° |
| 2026-05-09 01:42 | 35.59760 | -97.48786 | 4012 ft | 221 kts | 358° |
| 2026-05-09 01:42 | 35.61282 | -97.48793 | 4000 ft | 217 kts | 358° |
| 2026-05-09 01:43 | 35.62690 | -97.49215 | 3993 ft | 204 kts | 322° |
| 2026-05-09 01:43 | 35.63394 | -97.50600 | 3995 ft | 189 kts | 277° |
| 2026-05-09 01:43 | 35.63137 | -97.52097 | 4020 ft | 174 kts | 253° |
| 2026-05-09 01:43 | 35.62688 | -97.53474 | 3998 ft | 174 kts | 242° |
| 2026-05-09 01:44 | 35.61931 | -97.54620 | 4013 ft | 174 kts | 223° |
| 2026-05-09 01:44 | 35.60888 | -97.55410 | 4025 ft | 177 kts | 211° |
| 2026-05-09 01:44 | 35.59805 | -97.56155 | 4025 ft | 179 kts | 212° |
| 2026-05-09 01:44 | 35.58719 | -97.56912 | 4019 ft | 180 kts | 212° |
| 2026-05-09 01:45 | 35.57628 | -97.57670 | 4020 ft | 180 kts | 212° |
| 2026-05-09 01:45 | 35.56535 | -97.58421 | 4022 ft | 180 kts | 208° |
| 2026-05-09 01:45 | 35.55315 | -97.58722 | 3941 ft | 179 kts | 185° |
| 2026-05-09 01:45 | 35.54081 | -97.58844 | 3873 ft | 179 kts | 185° |
| 2026-05-09 01:46 | 35.52822 | -97.58896 | 3667 ft | 180 kts | 183° |
| 2026-05-09 01:46 | 35.51605 | -97.58903 | 3426 ft | 168 kts | 182° |
| 2026-05-09 01:46 | 35.50476 | -97.58902 | 3210 ft | 159 kts | 182° |
| 2026-05-09 01:46 | 35.49367 | -97.58901 | 3017 ft | 159 kts | 182° |
| 2026-05-09 01:47 | 35.48273 | -97.58901 | 2808 ft | 155 kts | 182° |
| 2026-05-09 01:47 | 35.47211 | -97.58900 | 2606 ft | 150 kts | 182° |
| 2026-05-09 01:47 | 35.46187 | -97.58899 | 2399 ft | 145 kts | 181° |
| 2026-05-09 01:47 | 35.45179 | -97.58898 | 2224 ft | 146 kts | 181° |
| 2026-05-09 01:48 | 35.44163 | -97.58891 | 2060 ft | 146 kts | 179° |
| 2026-05-09 01:48 | 35.43132 | -97.58904 | 1833 ft | 150 kts | 180° |
| 2026-05-09 01:48 | 35.42097 | -97.58908 | 1657 ft | 146 kts | 179° |
| 2026-05-09 01:48 | 35.41093 | -97.58898 | 1453 ft | 143 kts | 180° |
| 2026-05-09 01:49 | 35.40097 | -97.58903 | 1296 ft | 137 kts | 180° |
| 2026-05-09 01:49 | 35.39353 | -97.58899 | 1293 ft | 50 kts | 180° |
| 2026-05-09 01:49 | 35.39105 | -97.58896 | 1295 ft | 28 kts | 179° |
| 2026-05-09 01:49 | 35.38992 | -97.58954 | 1294 ft | 14 kts | 234° |
| 2026-05-09 01:50 | 35.38977 | -97.59056 | 1294 ft | 12 kts | 270° |
| 2026-05-09 01:50 | 35.38987 | -97.59198 | 1292 ft | 18 kts | 301° |
| 2026-05-09 01:50 | 35.39072 | -97.59221 | 1293 ft | 15 kts | 1° |
| 2026-05-09 01:50 | 35.39195 | -97.59222 | 1294 ft | 21 kts | 359° |
| 2026-05-09 01:51 | 35.39309 | -97.59225 | 1294 ft | 10 kts | 359° |
| 2026-05-09 01:51 | 35.39381 | -97.59277 | 1295 ft | 16 kts | 290° |
| 2026-05-09 01:51 | 35.39374 | -97.59411 | 1298 ft | 13 kts | 246° |
| 2026-05-09 01:51 | 35.39413 | -97.59527 | 1299 ft | 17 kts | 326° |
| 2026-05-09 01:52 | 35.39454 | -97.59559 | 1299 ft | 0 kts | 343° |